Impacts TAF Board INFO
FOR SITUATIONAL AWARENESS. NOT TO BE USED FOR FLIGHT PLANNING PURPOSES.
IDs:

KSAN - San Diego Intl Arpt, CA, US

Issued at 2320 UTC 14 Dec 2017
Updated at 0240 UTC 15 Dec 2017
Potential Impact None Slight Moderate High
Time0151Z 15/03Z 15/04Z 15/05Z 15/06Z 15/07Z 15/08Z 15/09Z 15/10Z 15/11Z 15/12Z 15/13Z 15/14Z 15/15Z>>
Type OBS PRVL PRVL PRVL PRVL PRVL PRVL PRVL PRVL PRVL PRVL PRVL PRVL PRVL
VIS 10 >6 >6 >6 >6 >6 >6 >6 >6 >6 >6 >6 >6 >6
CIG -- -- -- -- -- -- -- -- -- -- -- -- -- --
Cover FEW SCT SCT SCT FEW FEW FEW FEW FEW FEW FEW FEW FEW FEW
FltCat VFR VFR VFR VFR VFR VFR VFR VFR VFR VFR VFR VFR VFR VFR
WX -- -- -- -- -- -- -- -- -- -- -- -- -- --
WDir 290 VRB VRB VRB VRB VRB VRB VRB VRB VRB VRB VRB VRB VRB
WSpd 6 4 4 4 6 6 6 6 6 6 6 6 6 6
WGst -- -- -- -- -- -- -- -- -- -- -- -- -- --

Raw TAF
KSAN 142320Z 1500/1606 30009KT P6SM SCT250
  FM150100 VRB04KT P6SM SCT250 WS010/05025KT
  FM150600 VRB06KT P6SM FEW250
  FM152000 32007KT P6SM SKC
  FM160200 VRB04KT P6SM SKC


Raw METAR
KSAN 150151Z 29006KT 10SM FEW250 17/04 A3004 RMK AO2 SLP171 T01670044
KSAN 150051Z 29006KT 10SM SCT250 18/09 A3001 RMK AO2 SLP162 T01830089
KSAN 142351Z 29005KT 10SM SCT250 21/00 A2999 RMK AO2 SLP155 T02110000 10228 20178 55001

METAR Board
Radar Display
Forecast Discussion

FOR SITUATIONAL AWARENESS. NOT TO BE USED FOR FLIGHT PLANNING PURPOSES.